createdAt,value
2018-07-30T00:03:20.808Z,100045.39
2018-07-30T00:08:24.526Z,100043.95
2018-07-30T00:13:28.365Z,100040.97
2018-07-30T00:18:32.094Z,100037.03
2018-07-30T00:23:35.871Z,100032.86
2018-07-30T00:28:39.603Z,100031.42
2018-07-30T00:33:43.866Z,100038.73
2018-07-30T00:38:47.899Z,100042.16
2018-07-30T00:43:51.869Z,100038.97
2018-07-30T00:48:55.658Z,100043.16
2018-07-30T00:53:59.552Z,100048.27
2018-07-30T00:59:03.340Z,100045.98
2018-07-30T01:04:07.027Z,100041.74
2018-07-30T01:09:11.643Z,100038.01
2018-07-30T01:14:16.079Z,100034.14
2018-07-30T01:19:19.883Z,100037.37
2018-07-30T01:24:23.660Z,100043.83
2018-07-30T01:29:27.336Z,100035.16
2018-07-30T01:34:31.117Z,100043.73
2018-07-30T01:39:35.877Z,100039.31
2018-07-30T01:44:39.582Z,100051.84
2018-07-30T01:49:43.234Z,100061.70
2018-07-30T01:54:46.995Z,100052.80
2018-07-30T01:59:50.998Z,100061.01
2018-07-30T02:04:54.686Z,100061.36
2018-07-30T02:09:58.502Z,100068.30
2018-07-30T02:15:05.524Z,100058.30
2018-07-30T02:20:09.190Z,100054.14
2018-07-30T02:25:12.902Z,100050.13
2018-07-30T02:30:16.606Z,100048.59
2018-07-30T02:35:20.392Z,100051.70
2018-07-30T02:40:24.106Z,100045.86
2018-07-30T02:45:27.857Z,100048.80
2018-07-30T02:50:31.532Z,100062.48
2018-07-30T02:55:35.183Z,100066.19
2018-07-30T03:00:38.931Z,100058.41
2018-07-30T03:05:43.292Z,100073.40
2018-07-30T03:10:47.049Z,100080.03
2018-07-30T03:15:50.763Z,100086.58
2018-07-30T03:20:54.534Z,100073.24
2018-07-30T03:25:59.091Z,100068.25
2018-07-30T03:31:02.832Z,100071.91
2018-07-30T03:36:06.745Z,100070.39
2018-07-30T03:41:11.649Z,100067.14
2018-07-30T03:46:16.572Z,100068.81
2018-07-30T03:51:20.323Z,100071.53
2018-07-30T03:56:24.146Z,100081.75
2018-07-30T04:01:27.903Z,100076.75
2018-07-30T04:06:32.192Z,100088.63
2018-07-30T04:11:35.959Z,100096.43
2018-07-30T04:16:45.050Z,100098.59
2018-07-30T04:21:48.714Z,100098.73
2018-07-30T04:26:52.375Z,100099.88
2018-07-30T04:31:56.042Z,100098.31
2018-07-30T04:36:59.741Z,100092.80
2018-07-30T04:42:03.486Z,100094.02
2018-07-30T04:47:07.208Z,100093.44
2018-07-30T04:52:10.882Z,100097.06
2018-07-30T04:57:14.630Z,100099.22
2018-07-30T05:02:18.903Z,100089.05
2018-07-30T05:07:22.582Z,100093.47
2018-07-30T05:12:26.455Z,100098.39
2018-07-30T05:17:31.223Z,100097.99
2018-07-30T05:22:35.042Z,100103.01
2018-07-30T05:27:38.757Z,100107.23
2018-07-30T05:32:42.863Z,100115.41
2018-07-30T05:37:46.534Z,100120.83
2018-07-30T05:42:50.403Z,100125.70
2018-07-30T05:47:53.946Z,100129.27
2018-07-30T05:52:57.663Z,100129.52
2018-07-30T05:58:02.287Z,100125.09
2018-07-30T06:03:06.061Z,100127.51
2018-07-30T06:08:09.719Z,100133.02
2018-07-30T06:13:13.457Z,100134.83
2018-07-30T06:18:17.143Z,100138.39
2018-07-30T06:23:20.793Z,100136.69
2018-07-30T06:28:24.503Z,100136.38
2018-07-30T06:33:28.311Z,100142.59
2018-07-30T06:38:32.208Z,100140.38
2018-07-30T06:43:35.838Z,100140.83
2018-07-30T06:48:39.522Z,100151.97
2018-07-30T06:53:43.275Z,100154.69
2018-07-30T06:58:46.998Z,100155.28
2018-07-30T07:03:50.686Z,100155.72
2018-07-30T07:08:54.396Z,100152.89
2018-07-30T07:13:58.196Z,100153.83
2018-07-30T07:19:02.260Z,100159.81
2018-07-30T07:24:06.147Z,100145.22
2018-07-30T07:29:09.801Z,100145.45
2018-07-30T07:34:13.562Z,100151.08
2018-07-30T07:39:17.478Z,100152.02
2018-07-30T07:44:21.298Z,100150.86
2018-07-30T07:49:24.942Z,100149.23
2018-07-30T07:54:29.453Z,100148.42
2018-07-30T07:59:33.188Z,100151.23
2018-07-30T08:04:36.962Z,100155.45
2018-07-30T08:09:41.531Z,100152.23
2018-07-30T08:14:45.259Z,100155.37
2018-07-30T08:19:48.955Z,100154.44
2018-07-30T08:24:52.638Z,100155.80
2018-07-30T08:29:56.416Z,100152.93
2018-07-30T08:35:00.185Z,100152.93
2018-07-30T08:40:06.963Z,100161.81
2018-07-30T08:45:10.686Z,100157.08
2018-07-30T08:50:14.369Z,100159.65
2018-07-30T08:55:18.144Z,100159.14
2018-07-30T09:00:21.957Z,100153.59
2018-07-30T09:05:25.789Z,100158.36
2018-07-30T09:10:29.434Z,100159.06
2018-07-30T09:15:33.130Z,100159.95
2018-07-30T09:20:37.560Z,100150.30
2018-07-30T09:25:41.225Z,100151.86
2018-07-30T09:30:45.598Z,100149.29
2018-07-30T09:35:50.344Z,100152.20
2018-07-30T09:40:54.838Z,100147.34
2018-07-30T09:45:58.595Z,100150.84
2018-07-30T09:51:02.352Z,100147.50
2018-07-30T09:56:07.400Z,100143.13
2018-07-30T10:01:16.164Z,100148.20
2018-07-30T10:06:20.794Z,100144.98
2018-07-30T10:11:24.768Z,100142.15
2018-07-30T10:16:28.650Z,100142.84
2018-07-30T10:21:32.506Z,100139.78
2018-07-30T10:26:36.308Z,100139.39
2018-07-30T10:31:40.137Z,100141.91
2018-07-30T10:36:43.851Z,100145.48
2018-07-30T10:41:48.457Z,100138.19
2018-07-30T10:46:53.122Z,100142.47
2018-07-30T10:51:57.086Z,100141.63
2018-07-30T10:57:02.535Z,100136.77
2018-07-30T11:02:08.482Z,100128.62
2018-07-30T11:07:13.055Z,100125.32
2018-07-30T11:12:17.094Z,100127.20
2018-07-30T11:17:21.739Z,100126.48
2018-07-30T11:22:26.479Z,100125.28
2018-07-30T11:27:31.176Z,100121.77
2018-07-30T11:32:35.900Z,100120.57
2018-07-30T11:37:40.384Z,100121.65
2018-07-30T11:47:58.950Z,100117.51
2018-07-30T11:53:04.061Z,100119.28
2018-07-30T11:58:10.077Z,100117.14
2018-07-30T12:03:14.472Z,100110.27
2018-07-30T12:08:25.824Z,100107.47
2018-07-30T12:13:29.821Z,100106.73
2018-07-30T12:18:33.836Z,100103.45
2018-07-30T12:23:37.486Z,100105.95
2018-07-30T12:28:41.227Z,100097.86
2018-07-30T12:33:45.064Z,100101.63
2018-07-30T12:38:48.996Z,100099.06
2018-07-30T12:43:52.690Z,100099.38
2018-07-30T12:48:56.433Z,100097.35
2018-07-30T12:54:00.124Z,100094.13
2018-07-30T12:59:03.889Z,100080.25
2018-07-30T13:04:08.120Z,100078.44
2018-07-30T13:09:11.992Z,100072.59
2018-07-30T13:14:15.669Z,100062.39
2018-07-30T13:19:19.408Z,100060.02
2018-07-30T13:24:23.123Z,100055.27
2018-07-30T13:29:26.976Z,100054.58
2018-07-30T13:34:30.750Z,100061.01
2018-07-30T13:39:34.463Z,100052.35
2018-07-30T13:44:38.212Z,100045.72
2018-07-30T13:49:41.999Z,100044.01
2018-07-30T13:54:45.910Z,100042.55
2018-07-30T13:59:49.607Z,100038.82
2018-07-30T14:04:54.368Z,100031.62
2018-07-30T14:09:58.097Z,100033.83
2018-07-30T14:15:15.371Z,100025.84
2018-07-30T14:20:19.358Z,100026.53
2018-07-30T14:25:23.055Z,100020.24
2018-07-30T14:30:27.794Z,100020.70
2018-07-30T14:35:31.500Z,100014.59
2018-07-30T14:40:35.974Z,100008.39
2018-07-30T14:45:39.857Z,100009.11
2018-07-30T14:50:43.619Z,100003.41
2018-07-30T14:55:47.393Z,100004.52
2018-07-30T15:00:51.357Z,100002.07
2018-07-30T15:05:55.198Z,100003.27
2018-07-30T15:10:58.823Z,100003.66
2018-07-30T15:16:02.575Z,99997.20
2018-07-30T15:21:07.480Z,99993.34
2018-07-30T15:26:11.714Z,99992.38
2018-07-30T15:31:16.642Z,99988.73
2018-07-30T15:36:20.921Z,99987.05
2018-07-30T15:41:24.711Z,99988.23
2018-07-30T15:46:28.556Z,99989.64
2018-07-30T15:51:32.389Z,99989.98
2018-07-30T15:56:36.259Z,99982.33
2018-07-30T16:01:40.606Z,99981.69
2018-07-30T16:06:44.479Z,99982.67
2018-07-30T16:11:48.389Z,99979.31
2018-07-30T16:16:52.235Z,99980.97
2018-07-30T16:21:55.934Z,99984.66
2018-07-30T16:26:59.953Z,99989.55
2018-07-30T16:32:04.795Z,99983.69
2018-07-30T16:37:08.860Z,99981.85
2018-07-30T16:47:26.208Z,99979.00
2018-07-30T16:52:30.121Z,99978.87
2018-07-30T16:57:34.141Z,99982.06
2018-07-30T17:02:38.202Z,99982.27
2018-07-30T17:07:43.159Z,99985.04
2018-07-30T17:12:47.348Z,99977.66
2018-07-30T17:17:51.205Z,99978.20
2018-07-30T17:22:55.128Z,99984.09
2018-07-30T17:27:58.882Z,99987.16
2018-07-30T17:33:02.651Z,99992.47
2018-07-30T17:38:06.578Z,99995.02
2018-07-30T17:43:10.432Z,99998.29
2018-07-30T17:48:14.364Z,100002.20
2018-07-30T17:53:18.184Z,100007.99
2018-07-30T17:58:22.256Z,100002.20
2018-07-30T18:03:26.077Z,100009.18
2018-07-30T18:08:30.020Z,100004.72
2018-07-30T18:13:34.061Z,100012.72
2018-07-30T18:18:38.119Z,100008.77
2018-07-30T18:23:41.927Z,100020.72
2018-07-30T18:28:45.954Z,100026.13
2018-07-30T18:33:50.179Z,100028.59
2018-07-30T18:38:54.150Z,100031.92
2018-07-30T18:43:59.601Z,100033.83
2018-07-30T18:49:03.387Z,100035.80
2018-07-30T18:54:07.768Z,100041.87
2018-07-30T18:59:12.623Z,100050.85
2018-07-30T19:04:20.133Z,100052.39
2018-07-30T19:09:34.815Z,100053.37
2018-07-30T19:14:39.771Z,100055.28
2018-07-30T19:25:07.471Z,100076.09
2018-07-30T19:30:12.561Z,100077.74
2018-07-30T19:40:47.848Z,100093.80
2018-07-30T19:45:54.388Z,100093.33
2018-07-30T19:50:59.627Z,100094.64
2018-07-30T19:56:03.732Z,100108.27
2018-07-30T20:01:08.068Z,100118.39
2018-07-30T20:06:12.024Z,100116.69
2018-07-30T20:11:16.289Z,100120.04
2018-07-30T20:16:20.300Z,100126.58
2018-07-30T20:21:26.189Z,100124.88
2018-07-30T20:26:30.663Z,100135.02
2018-07-30T20:31:34.587Z,100126.92
2018-07-30T20:36:38.654Z,100128.49
2018-07-30T20:41:42.785Z,100123.41
2018-07-30T20:46:47.119Z,100132.13
2018-07-30T20:51:50.976Z,100136.21
2018-07-30T20:56:54.832Z,100131.86
2018-07-30T21:01:58.702Z,100137.23
2018-07-30T21:07:02.850Z,100140.97
2018-07-30T21:12:07.036Z,100145.52
2018-07-30T21:17:10.889Z,100142.75
2018-07-30T21:22:14.689Z,100145.35
2018-07-30T21:27:18.729Z,100138.87
2018-07-30T21:32:22.425Z,100137.23
2018-07-30T21:37:26.366Z,100135.48
2018-07-30T21:42:30.192Z,100139.86
2018-07-30T21:47:34.027Z,100129.34
2018-07-30T21:52:37.662Z,100132.06
2018-07-30T21:57:41.536Z,100134.41
2018-07-30T22:02:45.897Z,100138.16
2018-07-30T22:07:50.135Z,100137.30
2018-07-30T22:12:55.036Z,100135.78
2018-07-30T22:17:58.897Z,100128.68
2018-07-30T22:23:02.671Z,100140.38
2018-07-30T22:28:07.035Z,100142.69
2018-07-30T22:33:10.825Z,100141.45
2018-07-30T22:38:14.630Z,100143.88
2018-07-30T22:43:18.494Z,100147.91
2018-07-30T22:48:22.297Z,100156.13
2018-07-30T22:53:26.164Z,100154.03
2018-07-30T22:58:29.883Z,100152.97
2018-07-30T23:03:33.624Z,100154.21
2018-07-30T23:08:37.350Z,100149.17
2018-07-30T23:13:41.174Z,100152.91
2018-07-30T23:18:44.895Z,100154.72
2018-07-30T23:23:48.620Z,100154.77
2018-07-30T23:28:52.439Z,100154.70
2018-07-30T23:33:56.248Z,100151.61
2018-07-30T23:39:00.092Z,100149.44
2018-07-30T23:44:04.003Z,100151.34
2018-07-30T23:49:07.773Z,100141.47
2018-07-30T23:54:12.312Z,100141.73
2018-07-30T23:59:15.938Z,100141.17
